EPGD/GDN METAR and TAF weather

Enter ICAO airport designator
Station Type Date Time Source
EPGD METAR 2018/12/12 16:00 UTC NOAA

EPGD 121600Z 03005KT 350V050 9999 -SHRA FEW008 SCT015TCU BKN027 02/01 Q1024


Station Type Date Time Source
EPGD Decoded METAR 2018/12/12 16:00 UTC NOAA

Gdansk-Rebiechowo, Poland (EPGD) 54-23N 018-28E 138M
Dec 12, 2018 - 11:00 AM EST / 2018.12.12 1600 UTC
Wind: from the NNE (030 degrees) at 6 MPH (5 KT) (direction variable):0
Visibility: greater than 7 mile(s):0
Sky conditions: mostly cloudy
Weather: light rain showers; Towering cumulus clouds observed
Temperature: 35 F (2 C)
Windchill: 30 F (-1 C):1
Dew Point: 33 F (1 C)
Relative Humidity: 93%
Pressure (altimeter): 30.24 in. Hg (1024 hPa)
ob: EPGD 121600Z 03005KT 350V050 9999 -SHRA FEW008 SCT015TCU BKN027 02/01 Q1024
cycle: 16

Station Type Date Time Source
EPGD TAF 2018/12/12 12:33 UTC NOAA

TAF TAF EPGD 121130Z 1212/1312 03005KT 9999 BKN020
TEMPO 1212/1312 -SHSNRA BKN006 BKN012TCU PROB40
TEMPO 1212/1312 3000 SHSNRA BKN004 BKN008TCU


Example: see airport list